Time;durP1;ratioP1;P1;durP2;ratioP2;P2;SDS_P1;SDS_P2;PMS_P1;PMS_P2;Temp;Humidity;BMP_temperature;BMP_pressure;BME280_temperature;BME280_humidity;BME280_pressure;Samples;Min_cycle;Max_cycle;Signal;HPM_P1;HPM_P2
2023/01/14 00:01:34;;;;;;;17.10;4.22;;;;;;;5.67;92.96;101399.25;5032640;28;20029;-71
2023/01/14 00:04:01;;;;;;;15.80;3.08;;;;;;;5.61;93.14;101403.97;5045703;28;20040;-72
2023/01/14 00:06:32;;;;;;;17.08;2.97;;;;;;;5.58;93.29;101403.22;5028059;28;20044;-71
2023/01/14 00:09:00;;;;;;;23.90;4.18;;;;;;;5.52;93.44;101409.78;5027047;28;20052;-73
2023/01/14 00:14:11;;;;;;;18.85;4.38;;;;;;;5.45;93.54;101405.56;5047673;28;20564;-71
2023/01/14 00:16:37;;;;;;;13.68;3.35;;;;;;;5.43;93.71;101415.56;5046673;28;20071;-72
2023/01/14 00:19:03;;;;;;;13.02;3.35;;;;;;;5.39;93.98;101413.94;5046913;28;20049;-72
2023/01/14 00:21:29;;;;;;;13.45;3.45;;;;;;;5.36;93.54;101420.34;5030352;28;20392;-71
2023/01/14 00:23:54;;;;;;;13.88;2.92;;;;;;;5.34;94.18;101421.34;5036263;28;20041;-71
2023/01/14 00:26:21;;;;;;;17.25;4.05;;;;;;;5.30;94.06;101420.56;5040484;28;20116;-72
2023/01/14 00:28:49;;;;;;;21.85;3.92;;;;;;;5.27;94.43;101414.41;5025513;28;20029;-72
2023/01/14 00:31:25;;;;;;;17.75;3.00;;;;;;;5.25;94.12;101410.94;5027295;28;20459;-72
2023/01/14 00:33:52;;;;;;;13.32;2.85;;;;;;;5.22;94.50;101405.66;5025643;28;20091;-72
2023/01/14 00:36:20;;;;;;;10.75;2.50;;;;;;;5.18;94.39;101404.03;5030331;28;20043;-72
2023/01/14 00:38:45;;;;;;;12.88;3.05;;;;;;;5.13;94.81;101396.16;5030958;28;20025;-71
2023/01/14 00:41:14;;;;;;;11.55;3.13;;;;;;;5.09;95.08;101400.78;5026567;28;20060;-72
2023/01/14 00:43:42;;;;;;;15.27;3.60;;;;;;;5.08;94.87;101407.13;5033832;28;20055;-71
2023/01/14 00:46:15;;;;;;;21.83;4.32;;;;;;;5.07;95.08;101407.16;5044726;28;20075;-71
2023/01/14 00:48:41;;;;;;;14.32;3.08;;;;;;;5.03;95.04;101414.47;5013687;28;20034;-71
2023/01/14 00:51:07;;;;;;;10.25;3.28;;;;;;;4.99;95.12;101420.06;5030825;28;20112;-72
2023/01/14 00:53:33;;;;;;;13.20;3.15;;;;;;;4.90;95.54;101409.69;5013339;28;20587;-72
2023/01/14 00:55:59;;;;;;;15.70;3.20;;;;;;;4.88;96.01;101404.31;5029145;28;20043;-72
2023/01/14 00:58:24;;;;;;;18.33;3.10;;;;;;;4.83;96.48;101412.59;5029800;28;20035;-72
2023/01/14 01:00:52;;;;;;;16.30;3.67;;;;;;;4.81;96.55;101422.56;5029449;28;20119;-72
2023/01/14 01:03:18;;;;;;;20.40;3.85;;;;;;;4.80;96.69;101425.31;5029520;28;20025;-74
2023/01/14 01:05:44;;;;;;;14.60;3.40;;;;;;;4.78;97.46;101430.75;5028513;28;20086;-72
2023/01/14 01:08:13;;;;;;;26.02;4.55;;;;;;;4.81;98.03;101424.38;5029870;28;20076;-72
2023/01/14 01:10:41;;;;;;;18.75;3.17;;;;;;;4.82;98.46;101432.41;5029366;28;20065;-71
2023/01/14 01:13:07;;;;;;;19.98;3.65;;;;;;;4.84;97.93;101417.03;5029879;28;20036;-71
2023/01/14 01:15:34;;;;;;;24.77;4.85;;;;;;;4.84;98.60;101417.03;5013171;28;20485;-71
2023/01/14 01:18:00;;;;;;;29.40;3.47;;;;;;;4.85;98.44;101417.94;5050194;28;20037;-72
2023/01/14 01:20:26;;;;;;;24.50;4.72;;;;;;;4.82;98.46;101416.22;5022294;28;20318;-72
2023/01/14 01:22:52;;;;;;;16.33;3.67;;;;;;;4.80;98.65;101415.44;5030107;28;20033;-73
2023/01/14 01:25:17;;;;;;;23.15;3.30;;;;;;;4.76;98.50;101416.47;5029008;28;20496;-72
2023/01/14 01:27:44;;;;;;;28.40;6.03;;;;;;;4.73;98.86;101408.50;5028608;28;20091;-71
2023/01/14 01:30:10;;;;;;;29.27;4.30;;;;;;;4.74;99.84;101414.78;5019398;28;20468;-72
2023/01/14 01:32:36;;;;;;;23.20;3.60;;;;;;;4.74;100.00;101418.34;5031475;28;20029;-71
2023/01/14 01:35:01;;;;;;;23.40;4.60;;;;;;;4.73;99.81;101418.41;5045214;28;20491;-72
2023/01/14 01:37:28;;;;;;;23.30;4.00;;;;;;;4.72;99.76;101419.34;5045048;28;20049;-73
2023/01/14 01:39:53;;;;;;;25.27;4.30;;;;;;;4.69;99.51;101414.94;5028709;28;20077;-73
2023/01/14 01:42:22;;;;;;;15.55;3.67;;;;;;;4.68;100.00;101412.31;5028563;28;20091;-71
2023/01/14 01:44:48;;;;;;;31.75;4.13;;;;;;;4.65;99.71;101421.41;5028525;28;20472;-71
2023/01/14 01:47:16;;;;;;;21.38;4.07;;;;;;;4.66;100.00;101414.19;5031309;28;20183;-71
2023/01/14 01:49:42;;;;;;;23.73;3.55;;;;;;;4.66;99.97;101417.75;5028898;28;20113;-73
2023/01/14 01:52:16;;;;;;;36.90;5.13;;;;;;;4.65;100.00;101415.13;5028725;28;20614;-72
2023/01/14 01:54:47;;;;;;;17.75;3.45;;;;;;;4.66;100.00;101412.38;5012104;28;20037;-73
2023/01/14 01:57:15;;;;;;;29.88;5.20;;;;;;;4.66;100.00;101422.28;5029970;28;20116;-72
2023/01/14 01:59:44;;;;;;;21.13;3.78;;;;;;;4.65;100.00;101421.41;5028658;28;20037;-72
2023/01/14 02:02:11;;;;;;;28.52;4.18;;;;;;;4.66;100.00;101411.50;5030541;28;20120;-72
2023/01/14 02:04:37;;;;;;;29.13;4.05;;;;;;;4.65;100.00;101409.75;5011691;28;20126;-71
2023/01/14 02:07:14;;;;;;;25.63;5.07;;;;;;;4.64;100.00;101408.88;5029363;28;20112;-72
2023/01/14 02:09:39;;;;;;;35.72;4.20;;;;;;;4.65;100.00;101407.91;5028588;28;20041;-71
2023/01/14 02:12:42;;;;;;;23.40;5.32;;;;;;;4.64;100.00;101394.53;5028015;28;20719;-71
2023/01/14 02:15:31;;;;;;;23.95;5.03;;;;;;;4.60;100.00;101394.63;5029769;28;20116;-72
2023/01/14 02:18:09;;;;;;;28.13;4.80;;;;;;;4.56;100.00;101390.28;5028096;28;20548;-72
2023/01/14 02:20:44;;;;;;;25.63;4.57;;;;;;;4.55;100.00;101371.50;5010535;28;20044;-72
2023/01/14 02:23:29;;;;;;;35.70;3.95;;;;;;;4.52;100.00;101360.84;5028499;28;20036;-72
2023/01/14 02:26:20;;;;;;;35.20;4.88;;;;;;;4.48;100.00;101348.44;5027969;28;20030;-72
2023/01/14 02:29:19;;;;;;;21.15;4.85;;;;;;;4.46;100.00;101343.09;5027719;28;20067;-71
2023/01/14 02:32:21;;;;;;;25.00;4.00;;;;;;;4.47;100.00;101338.59;5030326;28;20705;-71
2023/01/14 02:34:53;;;;;;;28.42;4.22;;;;;;;4.44;100.00;101336.91;5047398;28;20032;-72
2023/01/14 02:37:33;;;;;;;24.77;4.45;;;;;;;4.42;100.00;101333.38;5047272;28;20116;-73
2023/01/14 02:40:03;;;;;;;25.60;3.78;;;;;;;4.42;100.00;101319.91;5047583;28;20052;-71
2023/01/14 02:45:33;;;;;;;28.65;4.65;;;;;;;4.39;100.00;101316.47;5027188;28;20239;-72
2023/01/14 02:48:01;;;;;;;31.83;4.93;;;;;;;4.37;100.00;101305.75;5026698;28;20216;-71
2023/01/14 02:50:34;;;;;;;18.38;4.07;;;;;;;4.38;100.00;101317.38;5027479;28;20583;-73
2023/01/14 02:53:07;;;;;;;31.00;3.67;;;;;;;4.35;100.00;101316.59;5027567;28;20034;-72
2023/01/14 02:55:35;;;;;;;19.77;3.63;;;;;;;4.32;100.00;101303.22;5020490;28;20178;-72
2023/01/14 02:58:32;;;;;;;26.93;4.63;;;;;;;4.31;100.00;101300.59;5027256;28;20037;-71
2023/01/14 03:01:30;;;;;;;29.42;4.38;;;;;;;4.34;100.00;101306.75;5010396;28;20040;-72
2023/01/14 03:04:26;;;;;;;20.35;3.67;;;;;;;4.32;100.00;101305.94;5026642;28;20057;-71
2023/01/14 03:07:04;;;;;;;32.65;4.25;;;;;;;4.30;100.00;101307.81;5010769;28;20049;-72
2023/01/14 03:09:53;;;;;;;26.10;6.10;;;;;;;4.27;100.00;101302.53;5010864;28;20447;-72
2023/01/14 03:12:43;;;;;;;30.38;5.63;;;;;;;4.27;100.00;101297.16;5010729;28;20403;-72
2023/01/14 03:15:29;;;;;;;25.98;4.15;;;;;;;4.26;100.00;101290.00;5011110;28;20060;-71
2023/01/14 03:18:25;;;;;;;26.48;5.30;;;;;;;4.27;100.00;101288.19;5027816;28;20456;-71
2023/01/14 03:21:07;;;;;;;26.67;4.03;;;;;;;4.29;100.00;101275.53;5023907;28;20049;-72
2023/01/14 03:23:39;;;;;;;22.42;4.38;;;;;;;4.31;100.00;101270.97;5026603;28;20148;-71
2023/01/14 03:26:08;;;;;;;14.35;3.80;;;;;;;4.34;100.00;101271.75;5028237;28;20101;-72
2023/01/14 03:28:40;;;;;;;25.92;4.07;;;;;;;4.34;100.00;101273.56;5028057;28;20124;-72
2023/01/14 03:31:10;;;;;;;26.37;3.80;;;;;;;4.39;100.00;101262.59;5026658;28;20542;-72
2023/01/14 03:33:56;;;;;;;30.05;4.28;;;;;;;4.39;100.00;101263.47;5026856;28;20395;-75
2023/01/14 03:36:23;;;;;;;27.20;4.40;;;;;;;4.46;100.00;101261.41;5027726;28;20048;-73
2023/01/14 03:38:56;;;;;;;25.98;4.10;;;;;;;4.48;100.00;101260.41;5010023;28;20025;-72
2023/01/14 03:44:24;;;;;;;25.98;3.95;;;;;;;4.55;100.00;101256.50;5028200;28;20492;-71
2023/01/14 03:46:50;;;;;;;24.52;3.92;;;;;;;4.58;100.00;101255.53;5036180;28;20037;-72
2023/01/14 03:49:16;;;;;;;26.20;4.13;;;;;;;4.62;100.00;101257.16;5047211;28;20037;-72
2023/01/14 03:51:48;;;;;;;22.08;3.25;;;;;;;4.68;100.00;101254.19;5046536;28;20045;-71
2023/01/14 03:54:23;;;;;;;24.83;3.53;;;;;;;4.71;100.00;101243.31;5039085;28;20037;-72
2023/01/14 03:57:13;;;;;;;22.77;3.35;;;;;;;4.73;100.00;101235.16;5026665;28;20460;-72
2023/01/14 04:00:12;;;;;;;21.85;3.58;;;;;;;4.76;100.00;101237.72;5010191;28;20523;-72
2023/01/14 04:02:38;;;;;;;22.65;3.90;;;;;;;4.78;100.00;101238.53;5027536;28;20049;-72
2023/01/14 04:05:05;;;;;;;23.85;3.20;;;;;;;4.79;100.00;101230.38;5025537;28;20110;-72
2023/01/14 04:07:31;;;;;;;22.73;3.80;;;;;;;4.81;100.00;101228.50;5025849;28;20052;-72
2023/01/14 04:09:56;;;;;;;20.95;3.50;;;;;;;4.82;100.00;101221.28;5030864;28;20041;-72
2023/01/14 04:12:22;;;;;;;30.08;3.88;;;;;;;4.82;100.00;101211.38;5031921;28;20033;-72
2023/01/14 04:17:37;;;;;;;22.38;4.40;;;;;;;4.87;100.00;101189.63;5027199;28;20044;-72
2023/01/14 04:20:04;;;;;;;26.00;4.13;;;;;;;4.81;100.00;101179.97;5027009;28;20040;-72
2023/01/14 04:22:29;;;;;;;15.38;3.25;;;;;;;4.87;100.00;101186.91;5026747;28;20041;-71
2023/01/14 04:24:54;;;;;;;17.50;3.50;;;;;;;4.85;100.00;101175.34;5025848;28;20480;-71
2023/01/14 04:27:20;;;;;;;17.92;2.75;;;;;;;4.82;100.00;101165.56;5025556;28;20404;-73
2023/01/14 04:29:45;;;;;;;25.50;3.30;;;;;;;4.83;100.00;101161.91;5026918;28;20556;-72
2023/01/14 04:32:10;;;;;;;25.67;4.18;;;;;;;4.82;100.00;101162.84;5033830;28;20021;-71
2023/01/14 04:34:36;;;;;;;23.60;6.25;;;;;;;4.79;100.00;101148.63;5045369;28;20037;-72
2023/01/14 04:37:01;;;;;;;17.00;2.60;;;;;;;4.78;100.00;101152.28;5045470;28;20067;-72
2023/01/14 04:39:26;;;;;;;15.77;3.25;;;;;;;4.78;100.00;101150.44;5045969;28;20060;-71
2023/01/14 04:44:36;;;;;;;25.80;4.82;;;;;;;4.74;100.00;101147.97;5027101;28;20049;-71
2023/01/14 04:47:01;;;;;;;24.63;2.80;;;;;;;4.75;100.00;101155.97;5025597;28;20103;-72
2023/01/14 04:49:26;;;;;;;22.90;3.60;;;;;;;4.71;100.00;101148.97;5026688;28;20033;-72
2023/01/14 04:51:52;;;;;;;24.50;3.92;;;;;;;4.70;100.00;101157.13;5026800;28;20516;-71
2023/01/14 04:54:17;;;;;;;15.82;2.97;;;;;;;4.68;100.00;101146.41;5026944;28;20033;-72
2023/01/14 04:56:43;;;;;;;26.15;4.20;;;;;;;4.68;100.00;101148.22;5026701;28;20045;-72
2023/01/14 04:59:08;;;;;;;14.23;3.33;;;;;;;4.66;100.00;101142.00;5027409;28;20049;-71
2023/01/14 05:01:33;;;;;;;10.63;2.75;;;;;;;4.68;100.00;101140.16;5025788;28;20396;-71
2023/01/14 05:03:59;;;;;;;12.50;2.95;;;;;;;4.65;100.00;101133.06;5026479;28;20028;-71
2023/01/14 05:06:28;;;;;;;19.55;3.17;;;;;;;4.67;100.00;101125.81;5025369;28;20124;-72
2023/01/14 05:08:54;;;;;;;23.27;3.30;;;;;;;4.68;100.00;101126.69;5035798;28;20045;-72
2023/01/14 05:11:20;;;;;;;23.80;3.22;;;;;;;4.68;100.00;101113.19;5040211;28;20033;-74
2023/01/14 05:13:45;;;;;;;20.67;3.33;;;;;;;4.66;100.00;101109.69;5026684;28;20611;-72
2023/01/14 05:16:11;;;;;;;19.80;3.28;;;;;;;4.67;100.00;101115.03;5026167;28;20037;-71
2023/01/14 05:18:36;;;;;;;20.35;3.95;;;;;;;4.70;100.00;101106.78;5026043;28;20034;-71
2023/01/14 05:21:02;;;;;;;10.65;2.53;;;;;;;4.72;100.00;101099.53;5031501;28;20090;-72
2023/01/14 05:23:27;;;;;;;20.20;3.25;;;;;;;4.71;100.00;101095.09;5049099;28;20045;-72
2023/01/14 05:25:52;;;;;;;16.08;3.42;;;;;;;4.73;100.00;101082.41;5048748;28;20032;-72
2023/01/14 05:28:19;;;;;;;20.40;3.47;;;;;;;4.75;100.00;101083.19;5030012;28;20121;-72
2023/01/14 05:30:45;;;;;;;21.58;4.97;;;;;;;4.73;100.00;101071.63;5030025;28;20041;-73
2023/01/14 05:33:11;;;;;;;22.95;3.60;;;;;;;4.76;100.00;101060.72;5044024;28;20043;-71
2023/01/14 05:35:37;;;;;;;14.80;3.25;;;;;;;4.77;100.00;101057.06;5033600;28;20527;-71
2023/01/14 05:38:04;;;;;;;20.35;3.67;;;;;;;4.78;100.00;101050.72;5028933;28;20025;-71
2023/01/14 05:40:30;;;;;;;15.30;3.33;;;;;;;4.80;100.00;101042.56;5029751;28;20060;-71
2023/01/14 05:45:47;;;;;;;22.42;3.72;;;;;;;4.86;100.00;101031.53;5028641;28;20425;-72
2023/01/14 05:48:17;;;;;;;15.75;3.20;;;;;;;4.88;100.00;101021.53;5045369;28;20037;-72
2023/01/14 05:50:43;;;;;;;9.82;2.50;;;;;;;4.89;100.00;101017.00;5027757;28;20071;-72
2023/01/14 05:53:08;;;;;;;14.10;3.20;;;;;;;4.92;100.00;101012.38;5029171;28;20108;-72
2023/01/14 05:55:35;;;;;;;12.07;3.33;;;;;;;4.93;100.00;101002.44;5028323;28;20030;-71
2023/01/14 05:58:02;;;;;;;20.83;4.65;;;;;;;4.96;100.00;101000.50;5029321;28;20372;-71
2023/01/14 06:08:41;;;;;;;13.50;2.95;;;;;;;5.05;100.00;100972.22;5048488;28;20041;-72
2023/01/14 06:11:08;;;;;;;15.73;3.05;;;;;;;5.08;100.00;100972.97;5028878;28;20036;-71
2023/01/14 06:13:34;;;;;;;12.57;2.95;;;;;;;5.10;100.00;100973.75;5011808;28;20048;-73
2023/01/14 06:16:02;;;;;;;20.85;3.20;;;;;;;5.14;100.00;100960.13;5028916;28;20025;-73
2023/01/14 06:18:37;;;;;;;19.23;3.15;;;;;;;5.19;100.00;100955.38;5049284;28;20512;-71
2023/01/14 06:21:02;;;;;;;12.43;2.95;;;;;;;5.19;100.00;100953.56;5048453;28;20116;-71
2023/01/14 06:23:28;;;;;;;13.90;2.88;;;;;;;5.25;100.00;100939.78;5047901;28;20140;-71
2023/01/14 06:25:53;;;;;;;20.15;3.42;;;;;;;5.26;100.00;100937.94;5043795;28;20041;-71
2023/01/14 06:28:19;;;;;;;15.48;3.40;;;;;;;5.27;100.00;100935.19;5029099;28;20025;-72
2023/01/14 06:30:45;;;;;;;16.92;4.00;;;;;;;5.29;100.00;100927.88;5027387;28;20068;-74
2023/01/14 06:33:11;;;;;;;18.20;2.95;;;;;;;5.28;100.00;100920.75;5029127;28;20087;-72
2023/01/14 06:35:42;;;;;;;13.93;3.60;;;;;;;5.28;100.00;100912.66;5027135;28;20028;-72
2023/01/14 06:38:07;;;;;;;14.35;2.65;;;;;;;5.28;100.00;100896.47;5029692;28;20042;-73
2023/01/14 06:40:32;;;;;;;18.63;3.17;;;;;;;5.30;100.00;100897.25;5028646;28;20064;-72
2023/01/14 06:42:58;;;;;;;13.00;2.97;;;;;;;5.31;100.00;100893.59;5029119;28;20166;-71
2023/01/14 06:45:24;;;;;;;9.57;2.30;;;;;;;5.35;100.00;100894.34;5027104;28;20511;-73
2023/01/14 06:47:51;;;;;;;15.82;3.03;;;;;;;5.35;100.00;100875.44;5027544;28;20033;-71
2023/01/14 06:50:18;;;;;;;15.13;2.22;;;;;;;5.37;100.00;100874.44;5028401;28;20050;-71
2023/01/14 06:52:44;;;;;;;16.45;2.72;;;;;;;5.37;100.00;100876.25;5028031;28;20514;-72
2023/01/14 06:55:10;;;;;;;14.07;2.85;;;;;;;5.34;100.00;100866.47;5029623;28;20060;-72
2023/01/14 06:57:35;;;;;;;15.75;2.72;;;;;;;5.40;100.00;100861.72;5026914;28;20493;-72
2023/01/14 07:00:00;;;;;;;12.65;2.72;;;;;;;5.40;100.00;100856.34;5028459;28;20083;-72
2023/01/14 07:02:26;;;;;;;14.40;2.30;;;;;;;5.39;100.00;100836.59;5027210;28;20040;-72
2023/01/14 07:04:51;;;;;;;21.35;4.25;;;;;;;5.41;100.00;100839.19;5010083;28;20034;-71
2023/01/14 07:07:17;;;;;;;17.42;2.78;;;;;;;5.44;100.00;100833.66;5027759;28;20026;-72
2023/01/14 07:09:42;;;;;;;15.23;3.13;;;;;;;5.45;100.00;100819.19;5026872;28;20045;-74
2023/01/14 07:12:08;;;;;;;15.45;2.58;;;;;;;5.46;100.00;100820.97;5037250;28;20440;-72
2023/01/14 07:14:33;;;;;;;14.13;2.80;;;;;;;5.47;100.00;100815.47;5027268;28;20126;-72
2023/01/14 07:17:01;;;;;;;17.90;2.80;;;;;;;5.47;100.00;100804.69;5027994;28;20038;-72
2023/01/14 07:19:26;;;;;;;15.00;3.10;;;;;;;5.47;100.00;100780.41;5027859;28;20044;-72
2023/01/14 07:21:51;;;;;;;16.27;2.90;;;;;;;5.50;100.00;100782.97;5009948;28;20037;-73
2023/01/14 07:24:17;;;;;;;17.98;2.45;;;;;;;5.48;100.00;100779.44;5027679;28;20358;-72
2023/01/14 07:26:42;;;;;;;10.85;3.47;;;;;;;5.51;100.00;100770.34;5025891;28;20033;-72
2023/01/14 07:29:08;;;;;;;15.25;3.40;;;;;;;5.52;100.00;100774.78;5028327;28;20025;-72
2023/01/14 07:31:33;;;;;;;19.98;4.22;;;;;;;5.53;100.00;100761.19;5032148;28;20036;-73
2023/01/14 07:33:58;;;;;;;16.67;2.85;;;;;;;5.57;100.00;100770.88;5026438;28;20037;-73
2023/01/14 07:36:24;;;;;;;11.25;2.70;;;;;;;5.56;100.00;100762.88;5026356;28;20029;-72
2023/01/14 07:38:49;;;;;;;15.80;3.05;;;;;;;5.56;100.00;100752.94;5026361;28;20504;-73
2023/01/14 07:41:20;;;;;;;12.57;2.95;;;;;;;5.58;100.00;100751.03;5026639;28;20500;-73
2023/01/14 07:43:45;;;;;;;11.63;2.97;;;;;;;5.61;100.00;100739.22;5027664;28;20072;-73
2023/01/14 07:46:11;;;;;;;9.95;2.65;;;;;;;5.61;100.00;100723.00;5027955;28;20029;-72
2023/01/14 07:48:37;;;;;;;16.35;3.35;;;;;;;5.64;100.00;100712.03;5028478;28;20037;-73
2023/01/14 07:51:04;;;;;;;13.38;3.75;;;;;;;5.63;100.00;100707.59;5025275;28;20042;-72
2023/01/14 07:53:30;;;;;;;14.77;2.63;;;;;;;5.64;100.00;100695.84;5027554;28;20429;-73
2023/01/14 07:55:55;;;;;;;19.13;3.63;;;;;;;5.63;100.00;100694.97;5009814;28;20036;-72
2023/01/14 07:58:23;;;;;;;10.40;2.55;;;;;;;5.69;100.00;100682.09;5027412;28;20409;-72
2023/01/14 08:00:52;;;;;;;9.88;2.95;;;;;;;5.74;100.00;100674.66;5025774;28;20060;-74
2023/01/14 08:03:18;;;;;;;8.82;3.00;;;;;;;5.74;100.00;100672.81;5047149;28;20040;-72
2023/01/14 08:05:43;;;;;;;13.88;3.25;;;;;;;5.75;100.00;100652.97;5042131;28;20091;-73
2023/01/14 08:08:09;;;;;;;11.00;3.00;;;;;;;5.72;100.00;100630.66;5027922;28;20052;-73
2023/01/14 08:10:34;;;;;;;10.30;2.92;;;;;;;5.77;100.00;100642.06;5027109;28;20033;-73
2023/01/14 08:12:59;;;;;;;10.75;3.30;;;;;;;5.75;100.00;100628.66;5027284;28;20041;-72
2023/01/14 08:15:25;;;;;;;17.92;3.88;;;;;;;5.80;100.00;100620.31;5027121;28;20091;-72
2023/01/14 08:17:50;;;;;;;7.97;2.53;;;;;;;5.82;100.00;100612.97;5041693;28;20021;-72
2023/01/14 08:20:17;;;;;;;9.05;2.65;;;;;;;5.85;100.00;100621.78;5037985;28;20044;-74
2023/01/14 08:22:43;;;;;;;9.23;2.85;;;;;;;5.86;100.00;100598.34;5025017;28;20396;-73
2023/01/14 08:25:09;;;;;;;8.02;2.42;;;;;;;5.88;100.00;100582.97;5027990;28;20112;-73
2023/01/14 08:27:34;;;;;;;9.32;2.33;;;;;;;5.94;100.00;100589.88;5026625;28;20120;-73
2023/01/14 08:30:00;;;;;;;6.63;2.15;;;;;;;5.95;100.00;100588.91;5026955;28;20481;-72
2023/01/14 08:32:25;;;;;;;5.85;2.00;;;;;;;5.95;100.00;100575.41;5030642;28;20390;-72
2023/01/14 08:34:51;;;;;;;5.38;2.30;;;;;;;5.98;100.00;100553.63;5026716;28;20078;-73
2023/01/14 08:37:16;;;;;;;10.40;2.78;;;;;;;6.00;100.00;100554.41;5025521;28;20037;-72
2023/01/14 08:39:42;;;;;;;9.07;2.10;;;;;;;6.01;100.00;100551.59;5027599;28;20508;-74
2023/01/14 08:42:07;;;;;;;7.53;2.33;;;;;;;6.03;100.00;100535.34;5036564;28;20095;-74
2023/01/14 08:44:33;;;;;;;4.47;2.00;;;;;;;6.06;100.00;100521.63;5026932;28;20041;-72
2023/01/14 08:46:58;;;;;;;5.85;2.08;;;;;;;6.10;100.00;100517.78;5035188;28;20100;-73
2023/01/14 08:49:24;;;;;;;5.85;2.20;;;;;;;6.12;100.00;100511.34;5028488;28;20037;-73
2023/01/14 08:51:49;;;;;;;8.68;2.10;;;;;;;6.17;100.00;100521.00;5045358;28;20032;-73
2023/01/14 08:54:15;;;;;;;5.60;2.13;;;;;;;6.20;100.00;100502.81;5046928;28;20050;-72
2023/01/14 08:56:40;;;;;;;8.15;2.45;;;;;;;6.19;100.00;100495.63;5040973;28;20047;-73
2023/01/14 08:59:06;;;;;;;8.10;1.77;;;;;;;6.24;100.00;100479.16;5030611;28;20091;-72
2023/01/14 09:01:31;;;;;;;5.82;1.90;;;;;;;6.26;100.00;100474.53;5029398;28;20557;-72
2023/01/14 09:04:00;;;;;;;9.43;2.30;;;;;;;6.27;100.00;100462.78;5028703;28;20025;-72
2023/01/14 09:06:26;;;;;;;3.92;2.58;;;;;;;6.30;100.00;100474.28;5030362;28;20041;-73
2023/01/14 09:17:20;;;;;;;3.33;1.88;;;;;;;6.42;100.00;100437.50;5030184;28;20041;-72
2023/01/14 09:19:52;;;;;;;3.13;2.10;;;;;;;6.43;100.00;100436.53;5012403;28;20434;-72
2023/01/14 09:22:21;;;;;;;5.78;1.75;;;;;;;6.45;100.00;100423.81;5012000;28;20480;-73
2023/01/14 09:24:47;;;;;;;3.80;1.80;;;;;;;6.47;100.00;100423.72;5030185;28;20041;-73
2023/01/14 09:27:13;;;;;;;12.00;2.22;;;;;;;6.50;100.00;100415.44;5011722;28;20373;-73
2023/01/14 09:29:38;;;;;;;10.57;2.30;;;;;;;6.50;100.00;100401.91;5029014;28;20065;-73
2023/01/14 09:32:08;;;;;;;6.43;2.42;;;;;;;6.54;100.00;100407.03;5021351;28;20630;-73
2023/01/14 09:34:34;;;;;;;8.18;1.77;;;;;;;6.56;100.00;100391.56;5046567;28;20044;-72
2023/01/14 09:36:59;;;;;;;9.70;2.20;;;;;;;6.57;100.00;100381.63;5029793;28;20472;-73
2023/01/14 09:39:24;;;;;;;5.70;2.00;;;;;;;6.60;100.00;100370.63;5029838;28;20037;-73
2023/01/14 09:41:54;;;;;;;7.60;2.35;;;;;;;6.64;100.00;100373.03;5022471;28;20050;-73
2023/01/14 09:44:21;;;;;;;6.63;1.80;;;;;;;6.64;100.00;100361.38;5029890;28;20069;-72
2023/01/14 09:46:47;;;;;;;6.55;1.88;;;;;;;6.67;100.00;100344.06;5029544;28;20033;-72
2023/01/14 09:49:17;;;;;;;10.38;2.33;;;;;;;6.72;100.00;100353.66;5011587;28;20040;-74
2023/01/14 09:52:10;;;;;;;5.38;2.35;;;;;;;6.75;100.00;100356.13;5028169;28;20174;-73
2023/01/14 09:54:45;;;;;;;;;;;;;;;6.80;100.00;100345.03;5028583;28;20397;-73
2023/01/14 09:57:10;;;;;;;6.72;1.80;;;;;;;6.81;100.00;100339.53;5030167;28;19920;-72
2023/01/14 09:59:45;;;;;;;5.63;1.83;;;;;;;6.82;100.00;100337.69;5029481;28;20030;-72
2023/01/14 10:02:20;;;;;;;9.77;2.42;;;;;;;6.86;100.00;100326.59;5028772;28;20041;-72
2023/01/14 10:04:45;;;;;;;9.70;2.03;;;;;;;6.87;100.00;100320.19;5027987;28;20088;-72
2023/01/14 10:07:13;;;;;;;6.90;1.80;;;;;;;6.92;100.00;100319.91;5027164;28;20123;-74
2023/01/14 10:10:01;;;;;;;15.60;2.60;;;;;;;6.96;100.00;100299.81;5048104;28;20039;-73
2023/01/14 10:12:42;;;;;;;10.88;2.45;;;;;;;6.93;100.00;100296.41;5018395;28;20116;-73
2023/01/14 10:15:31;;;;;;;6.57;1.88;;;;;;;7.00;100.00;100268.03;5029856;28;20041;-72
2023/01/14 10:18:20;;;;;;;7.93;2.03;;;;;;;7.03;100.00;100252.44;5027859;28;20041;-73
2023/01/14 10:21:05;;;;;;;6.35;2.05;;;;;;;7.08;100.00;100247.56;5007760;28;20057;-72
2023/01/14 10:23:40;;;;;;;11.77;2.75;;;;;;;7.13;100.00;100255.38;5028248;28;20080;-73
2023/01/14 10:26:18;;;;;;;4.43;1.92;;;;;;;7.13;100.00;100239.16;5011191;28;20530;-73
2023/01/14 10:28:46;;;;;;;12.13;2.53;;;;;;;7.17;100.00;100221.75;5028763;28;20076;-72
2023/01/14 10:31:38;;;;;;;5.35;1.95;;;;;;;7.23;100.00;100209.63;5028490;28;20541;-72
2023/01/14 10:34:03;;;;;;;10.27;2.80;;;;;;;7.25;100.00;100210.41;5027039;28;20053;-72
2023/01/14 10:36:30;;;;;;;7.80;1.85;;;;;;;7.30;100.00;100217.22;5027116;28;20619;-73
2023/01/14 10:38:58;;;;;;;5.60;1.77;;;;;;;7.33;100.00;100203.50;5027884;28;20033;-73
2023/01/14 10:44:23;;;;;;;5.18;2.13;;;;;;;7.45;100.00;100188.22;5028198;28;20065;-73
2023/01/14 10:46:51;;;;;;;4.82;1.88;;;;;;;7.49;100.00;100178.94;5028283;28;20542;-72
2023/01/14 10:49:23;;;;;;;8.32;2.78;;;;;;;7.51;100.00;100168.00;5010094;28;20033;-73
2023/01/14 10:51:50;;;;;;;10.63;2.30;;;;;;;7.52;100.00;100157.06;5028005;28;20045;-73
2023/01/14 10:54:24;;;;;;;3.67;1.63;;;;;;;7.55;100.00;100142.44;5028559;28;20484;-73
2023/01/14 10:56:49;;;;;;;8.77;2.28;;;;;;;7.59;100.00;100150.22;5028487;28;20033;-73
2023/01/14 10:59:37;;;;;;;4.72;1.80;;;;;;;7.62;100.00;100143.75;5028721;28;20124;-73
2023/01/14 11:02:02;;;;;;;5.15;1.80;;;;;;;7.63;100.00;100137.34;5027052;28;20073;-73
2023/01/14 11:04:33;;;;;;;9.48;1.77;;;;;;;7.66;100.00;100110.94;5028240;28;20069;-73
2023/01/14 11:07:07;;;;;;;5.13;1.88;;;;;;;7.72;100.00;100112.31;5028469;28;20441;-73
2023/01/14 11:09:33;;;;;;;6.50;1.58;;;;;;;7.75;100.00;100116.66;5028352;28;20091;-72
2023/01/14 11:11:59;;;;;;;5.85;1.70;;;;;;;7.77;100.00;100096.59;5010698;28;20477;-73
2023/01/14 11:14:24;;;;;;;5.22;2.13;;;;;;;7.82;100.00;100097.13;5026790;28;20131;-72
2023/01/14 11:16:49;;;;;;;7.35;1.88;;;;;;;7.83;100.00;100100.69;5034446;28;20402;-74
2023/01/14 11:19:15;;;;;;;5.75;1.45;;;;;;;7.86;100.00;100073.41;5047454;28;20021;-72
2023/01/14 11:21:46;;;;;;;7.45;2.58;;;;;;;7.88;100.00;100072.31;5039980;28;20049;-72
2023/01/14 11:24:23;;;;;;;4.30;1.77;;;;;;;7.91;100.00;100082.06;5028203;28;20073;-73
2023/01/14 11:26:49;;;;;;;2.55;1.55;;;;;;;7.92;100.00;100073.81;5044813;28;20478;-73
2023/01/14 11:29:25;;;;;;;3.50;1.33;;;;;;;7.96;100.00;100073.59;5047635;28;20511;-73
2023/01/14 11:31:54;;;;;;;4.20;1.30;;;;;;;7.99;100.00;100051.72;5045286;28;20064;-73
2023/01/14 11:34:53;;;;;;;1.90;0.98;;;;;;;8.02;100.00;100036.09;5047424;28;20064;-72
2023/01/14 11:37:21;;;;;;;4.47;1.60;;;;;;;8.05;100.00;100022.31;5046923;28;20037;-72
2023/01/14 11:39:51;;;;;;;2.15;1.10;;;;;;;8.06;100.00;100032.16;5046178;28;20044;-73
2023/01/14 11:42:34;;;;;;;3.92;1.60;;;;;;;8.09;100.00;100031.94;5028310;28;20067;-73
2023/01/14 11:45:03;;;;;;;3.95;1.30;;;;;;;8.13;100.00;100008.19;5046330;28;20503;-72
2023/01/14 11:47:32;;;;;;;4.90;1.40;;;;;;;8.14;100.00;100008.06;5021740;28;20029;-74
2023/01/14 11:50:08;;;;;;;2.05;1.20;;;;;;;8.18;100.00;100017.69;5045747;28;20118;-72
2023/01/14 11:52:34;;;;;;;2.28;1.30;;;;;;;8.18;100.00;100008.69;5030011;28;20091;-73
2023/01/14 11:54:59;;;;;;;3.03;1.25;;;;;;;8.19;100.00;100008.56;5027651;28;20091;-73
2023/01/14 11:57:26;;;;;;;1.42;1.08;;;;;;;8.21;100.00;100005.78;5026181;28;20029;-73
2023/01/14 11:59:53;;;;;;;3.08;1.08;;;;;;;8.21;100.00;99997.66;5027305;28;20061;-73
2023/01/14 12:02:29;;;;;;;5.30;1.40;;;;;;;8.24;100.00;99974.84;5025937;28;20033;-74
2023/01/14 12:05:01;;;;;;;3.53;1.65;;;;;;;8.24;100.00;99973.00;5025703;28;20451;-73
2023/01/14 12:07:39;;;;;;;2.67;1.05;;;;;;;8.23;100.00;99979.41;5027296;28;20436;-73
2023/01/14 12:10:17;;;;;;;2.03;1.00;;;;;;;8.24;100.00;99958.59;5025945;28;20485;-74